createdAt,value
2022-11-13T00:00:39.633Z,65.73
2022-11-13T00:06:01.345Z,65.29
2022-11-13T00:11:22.360Z,65.11
2022-11-13T00:16:42.973Z,64.68
2022-11-13T00:22:03.551Z,65.21
2022-11-13T00:27:24.245Z,65.24
2022-11-13T00:32:44.852Z,64.84
2022-11-13T00:38:05.777Z,64.96
2022-11-13T00:43:26.836Z,64.98
2022-11-13T00:48:47.590Z,64.94
2022-11-13T00:54:08.422Z,63.87
2022-11-13T00:59:29.333Z,64.72
2022-11-13T01:04:49.964Z,64.54
2022-11-13T01:10:11.181Z,64.83
2022-11-13T01:15:32.061Z,64.46
2022-11-13T01:20:53.070Z,63.50
2022-11-13T01:26:25.881Z,63.25
2022-11-13T01:31:46.547Z,63.91
2022-11-13T01:37:07.496Z,63.70
2022-11-13T01:42:28.392Z,63.98
2022-11-13T01:47:49.016Z,64.37
2022-11-13T01:53:10.019Z,64.31
2022-11-13T01:58:31.115Z,63.97
2022-11-13T02:03:51.610Z,63.32
2022-11-13T02:09:14.440Z,63.45
2022-11-13T02:14:36.248Z,63.58
2022-11-13T02:20:00.169Z,63.55
2022-11-13T02:25:21.065Z,64.25
2022-11-13T02:30:42.138Z,65.23
2022-11-13T02:36:03.981Z,66.02
2022-11-13T02:41:24.530Z,65.96
2022-11-13T02:46:45.326Z,66.64
2022-11-13T02:52:06.187Z,66.38
2022-11-13T02:57:27.039Z,67.14
2022-11-13T03:02:47.864Z,67.10
2022-11-13T03:08:08.962Z,66.20
2022-11-13T03:13:29.712Z,65.21
2022-11-13T03:18:50.385Z,65.31
2022-11-13T03:24:11.271Z,65.66
2022-11-13T03:29:32.051Z,65.19
2022-11-13T03:34:52.923Z,64.90
2022-11-13T03:40:13.452Z,64.46
2022-11-13T03:45:34.786Z,64.97
2022-11-13T03:50:56.415Z,64.69
2022-11-13T03:56:17.389Z,64.24
2022-11-13T04:01:38.289Z,64.25
2022-11-13T04:06:59.182Z,63.96
2022-11-13T04:12:19.796Z,64.07
2022-11-13T04:17:40.995Z,64.17
2022-11-13T04:23:01.992Z,64.08
2022-11-13T04:28:22.781Z,64.34
2022-11-13T04:33:43.798Z,64.38
2022-11-13T04:39:04.406Z,64.21
2022-11-13T04:44:25.337Z,64.39
2022-11-13T04:49:45.952Z,64.58
2022-11-13T04:55:07.059Z,64.70
2022-11-13T05:00:27.673Z,64.92
2022-11-13T05:05:48.403Z,64.67
2022-11-13T05:11:08.929Z,64.71
2022-11-13T05:16:29.691Z,65.08
2022-11-13T05:21:50.668Z,65.39
2022-11-13T05:27:16.891Z,65.25
2022-11-13T05:32:38.354Z,65.24
2022-11-13T05:38:02.842Z,65.21
2022-11-13T05:43:23.332Z,65.65
2022-11-13T05:48:45.153Z,65.79
2022-11-13T05:54:06.522Z,65.96
2022-11-13T05:59:30.535Z,67.05
2022-11-13T06:04:55.398Z,68.49
2022-11-13T06:10:17.466Z,69.33
2022-11-13T06:15:38.226Z,69.79
2022-11-13T06:21:04.211Z,70.64
2022-11-13T06:26:30.558Z,70.92
2022-11-13T06:31:51.278Z,70.27
2022-11-13T06:37:12.162Z,70.54
2022-11-13T06:42:32.718Z,70.28
2022-11-13T06:47:54.483Z,70.19
2022-11-13T06:53:18.626Z,70.24
2022-11-13T06:58:39.394Z,69.52
2022-11-13T07:04:00.602Z,68.55
2022-11-13T07:09:21.470Z,68.00
2022-11-13T07:14:42.297Z,65.16
2022-11-13T07:20:03.076Z,64.78
2022-11-13T07:25:25.249Z,64.66
2022-11-13T07:30:46.232Z,64.73
2022-11-13T07:36:08.647Z,63.22
2022-11-13T07:41:29.207Z,63.38
2022-11-13T07:46:49.787Z,62.28
2022-11-13T07:52:10.476Z,62.44
2022-11-13T07:57:31.189Z,63.45
2022-11-13T08:02:51.942Z,63.54
2022-11-13T08:08:13.894Z,64.95
2022-11-13T08:13:35.028Z,65.51
2022-11-13T08:18:55.614Z,65.61
2022-11-13T08:24:16.224Z,66.52
2022-11-13T08:29:37.559Z,66.69
2022-11-13T08:34:58.079Z,66.77
2022-11-13T08:40:19.268Z,67.25
2022-11-13T08:45:40.092Z,67.56
2022-11-13T08:51:01.377Z,67.70
2022-11-13T08:56:22.460Z,67.69
2022-11-13T09:01:43.479Z,67.95
2022-11-13T09:07:04.495Z,67.45
2022-11-13T09:12:25.323Z,67.66
2022-11-13T09:17:46.087Z,67.58
2022-11-13T09:23:08.322Z,67.36
2022-11-13T09:28:29.436Z,66.53
2022-11-13T09:33:50.555Z,65.99
2022-11-13T09:39:11.661Z,65.36
2022-11-13T09:44:57.645Z,64.50
2022-11-13T09:50:25.879Z,64.95
2022-11-13T09:55:58.379Z,63.45
2022-11-13T10:01:50.212Z,63.70
2022-11-13T10:07:43.255Z,63.53
2022-11-13T10:13:12.215Z,62.86
2022-11-13T10:18:36.675Z,64.46
2022-11-13T10:23:57.773Z,64.88
2022-11-13T10:29:20.158Z,65.51
2022-11-13T10:34:44.854Z,65.82
2022-11-13T10:40:06.652Z,66.03
2022-11-13T10:45:27.604Z,66.30
2022-11-13T10:51:00.115Z,66.06
2022-11-13T10:56:30.247Z,65.51
2022-11-13T11:01:50.748Z,65.31
2022-11-13T11:07:20.604Z,63.68
2022-11-13T11:12:43.172Z,64.21
2022-11-13T11:18:07.956Z,63.30
2022-11-13T11:23:40.680Z,62.30
2022-11-13T11:29:21.764Z,62.54
2022-11-13T11:34:50.372Z,62.75
2022-11-13T11:40:21.387Z,63.29
2022-11-13T11:45:46.624Z,64.07
2022-11-13T11:51:40.243Z,63.67
2022-11-13T11:57:15.912Z,63.58
2022-11-13T12:02:55.566Z,63.85
2022-11-13T12:08:46.404Z,63.96
2022-11-13T12:14:35.785Z,63.95
2022-11-13T12:20:24.427Z,63.66
2022-11-13T12:26:06.511Z,63.84
2022-11-13T12:32:05.140Z,63.88
2022-11-13T12:37:43.175Z,64.01
2022-11-13T12:43:12.744Z,64.16
2022-11-13T12:48:35.305Z,64.88
2022-11-13T12:53:56.457Z,65.34
2022-11-13T12:59:30.453Z,65.14
2022-11-13T13:05:08.892Z,65.00
2022-11-13T13:10:48.444Z,65.10
2022-11-13T13:16:09.405Z,65.54
2022-11-13T13:21:43.888Z,65.41
2022-11-13T13:27:26.020Z,65.49
2022-11-13T13:32:56.425Z,65.92
2022-11-13T13:38:34.380Z,66.12
2022-11-13T13:44:27.745Z,66.63
2022-11-13T13:49:48.540Z,66.66
2022-11-13T13:55:36.445Z,66.45
2022-11-13T14:01:17.808Z,66.69
2022-11-13T14:06:52.651Z,66.28
2022-11-13T14:12:23.615Z,66.36
2022-11-13T14:17:44.788Z,66.13
2022-11-13T14:23:05.572Z,66.30
2022-11-13T14:28:29.285Z,66.38
2022-11-13T14:33:50.674Z,66.33
2022-11-13T14:39:22.878Z,66.10
2022-11-13T14:44:43.675Z,66.36
2022-11-13T14:50:48.545Z,66.04
2022-11-13T14:56:11.779Z,66.50
2022-11-13T15:01:33.133Z,66.50
2022-11-13T15:06:56.269Z,66.79
2022-11-13T15:12:17.018Z,66.75
2022-11-13T15:17:38.005Z,66.83
2022-11-13T15:23:01.648Z,66.82
2022-11-13T15:28:22.650Z,67.17
2022-11-13T15:33:43.524Z,67.07
2022-11-13T15:39:10.326Z,67.16
2022-11-13T15:44:34.367Z,67.22
2022-11-13T15:50:12.847Z,67.19
2022-11-13T15:55:35.089Z,67.20
2022-11-13T16:00:57.444Z,67.25
2022-11-13T16:06:20.876Z,67.42
2022-11-13T16:11:42.445Z,67.65
2022-11-13T16:17:05.746Z,68.02
2022-11-13T16:22:27.395Z,67.74
2022-11-13T16:27:48.175Z,67.82
2022-11-13T16:33:12.828Z,67.94
2022-11-13T16:38:33.624Z,67.70
2022-11-13T16:43:54.945Z,67.78
2022-11-13T16:49:19.320Z,67.67
2022-11-13T16:54:40.162Z,67.77
2022-11-13T17:00:01.197Z,67.73
2022-11-13T17:05:23.821Z,67.25
2022-11-13T17:10:44.957Z,67.06
2022-11-13T17:16:06.114Z,66.94
2022-11-13T17:21:30.195Z,67.27
2022-11-13T17:26:51.341Z,67.71
2022-11-13T17:32:12.162Z,67.85
2022-11-13T17:37:33.211Z,68.33
2022-11-13T17:42:54.241Z,68.81
2022-11-13T17:48:19.171Z,68.96
2022-11-13T17:53:45.415Z,69.22
2022-11-13T17:59:06.199Z,69.38
2022-11-13T18:04:27.393Z,69.79
2022-11-13T18:09:48.185Z,69.79
2022-11-13T18:15:11.860Z,70.46
2022-11-13T18:20:35.214Z,70.52
2022-11-13T18:25:56.286Z,70.88
2022-11-13T18:31:18.697Z,71.01
2022-11-13T18:36:41.816Z,71.12
2022-11-13T18:42:02.704Z,71.41
2022-11-13T18:47:26.598Z,71.55
2022-11-13T18:52:47.660Z,71.45
2022-11-13T18:58:14.545Z,71.37
2022-11-13T19:03:35.411Z,71.41
2022-11-13T19:09:05.131Z,71.31
2022-11-13T19:14:26.256Z,71.42
2022-11-13T19:19:47.343Z,71.41
2022-11-13T19:25:08.778Z,71.38
2022-11-13T19:30:29.893Z,71.53
2022-11-13T19:35:52.003Z,71.54
2022-11-13T19:41:12.877Z,71.44
2022-11-13T19:46:34.348Z,71.49
2022-11-13T19:51:55.375Z,71.62
2022-11-13T19:57:16.281Z,71.92
2022-11-13T20:02:36.967Z,72.13
2022-11-13T20:07:58.648Z,72.29
2022-11-13T20:13:19.528Z,72.34
2022-11-13T20:18:40.724Z,72.54
2022-11-13T20:24:01.863Z,72.38
2022-11-13T20:29:22.677Z,72.25
2022-11-13T20:34:43.464Z,72.16
2022-11-13T20:40:06.658Z,72.10
2022-11-13T20:45:27.451Z,71.79
2022-11-13T20:50:48.021Z,71.63
2022-11-13T20:56:09.669Z,71.53
2022-11-13T21:01:30.719Z,71.46
2022-11-13T21:06:52.719Z,71.35
2022-11-13T21:12:13.494Z,71.34
2022-11-13T21:17:34.056Z,71.00
2022-11-13T21:22:54.629Z,71.28
2022-11-13T21:28:19.521Z,71.14
2022-11-13T21:33:44.363Z,71.14
2022-11-13T21:39:05.030Z,71.27
2022-11-13T21:44:25.790Z,71.17
2022-11-13T21:49:46.698Z,71.38
2022-11-13T21:55:08.961Z,71.49
2022-11-13T22:00:29.726Z,71.69
2022-11-13T22:05:50.400Z,71.89
2022-11-13T22:11:12.187Z,72.17
2022-11-13T22:16:36.726Z,72.44
2022-11-13T22:21:57.542Z,72.37
2022-11-13T22:27:18.628Z,72.15
2022-11-13T22:32:39.217Z,71.78
2022-11-13T22:38:02.455Z,71.93
2022-11-13T22:43:23.316Z,71.69
2022-11-13T22:48:45.339Z,71.63
2022-11-13T22:54:07.990Z,71.33
2022-11-13T22:59:28.709Z,71.30
2022-11-13T23:04:49.378Z,71.23
2022-11-13T23:10:10.612Z,71.09
2022-11-13T23:15:31.619Z,70.89
2022-11-13T23:20:52.243Z,70.84
2022-11-13T23:26:14.578Z,70.97
2022-11-13T23:31:35.444Z,70.78
2022-11-13T23:36:56.084Z,70.54
2022-11-13T23:42:32.956Z,70.50
2022-11-13T23:47:57.265Z,70.36
2022-11-13T23:53:17.839Z,70.06
2022-11-13T23:58:38.328Z,69.96
